Thursday, April 24, 2014
03:54 UTC
  |  Log In   |  Register Free
Airport Search:

Alpena County Regional Airport
(KAPN)

FAA data valid effective April 3, 2014 until May 29, 2014 (unless otherwise noted).

 
 
 
 
 
 
 
 
 
 
 
 
 
 

Current Aviation Weather for Alpena County Regional Airport (KAPN)

The most recent METAR observation for KAPN was updated at: 0254 UTC
METAR Summary (Translated METAR)
KAPN
240254Z AUTO 30003KT 10SM CLR 03/M07 A3013 RMK AO2 SLP210 T00281072 53009
KPZQ
(22.4 nm NW from KAPN)
240255Z AUTO 27004KT 10SM CLR 02/M05 A3014 RMK AO2 T00221051
TAF Summary (Translated TAF)
KAPN
231720Z 2318/2418 34008G15KT P6SM SKC FM240100 00000KT P6SM SCT250 FM240900 00000KT P6SM BKN200 FM241300 12007KT P6SM BKN180
  Airport Weather Conditions for KAPN

 Current Weather at APN
37° F
Fair
Northwest winds at 3.5 mph
APN NOAA Radar

Pressure: 30.13 in
Humidity: 48%
Wind: Northwest at 3.5 MPH (3 KT)
Dew Point: 19.0°F
Visibility: 10.00 mi


Airport Weather Forecast for KAPN

Translated METAR and TAF for KAPN
Translated METAR for KAPN (0354 UTC 24 April 2014)
found at http://aviationweather.gov/adds/metars/
 
METAR text: KAPN 240254Z AUTO 30003KT 10SM CLR 03/M07 A3013 RMK AO2 SLP210 T00281072 53009
Conditions at: KAPN (ALPENA , MI, US) observed 0254 UTC 24 April 2014
Temperature: 2.8°C (37°F)
Dewpoint: -7.2°C (19°F) [RH = 48%]
Pressure (altimeter): 30.13 inches Hg (1020.4 mb)
[Sea-level pressure: 1021.0 mb]
Winds: from the WNW (300 degrees) at 3 MPH (3 knots; 1.6 m/s)
Visibility: 10 or more miles (16+ km)
Ceiling: at least 12,000 feet AGL
Clouds: sky clear below 12,000 feet AGL
Weather: automated observation with no human augmentation;
there may or may not be significant weather present at this time
Translated TAF for KAPN
Forecast for: KAPN (ALPENA , MI, US)
TAF Text: KAPN 232334Z 2400/2424 34010KT P6SM SCT250
Forecast period: 0000 to 0100 UTC 24 April 2014
Forecast type: FROM: standard forecast or significant change
Winds: from the NNW (340 degrees) at 12 MPH (10 knots; 5.2 m/s)
Visibility: 6 or more miles (10+ km)
Clouds: scattered clouds at 25000 feet AGL
Weather: no significant weather forecast for this period
TAF Text: FM240100 00000KT P6SM SCT250
Forecast period: 0100 to 1300 UTC 24 April 2014
Forecast type: FROM: standard forecast or significant change
Winds: calm
Visibility: 6 or more miles (10+ km)
Clouds: scattered clouds at 25000 feet AGL
Weather: no significant weather forecast for this period
TAF Text: FM241300 12007KT P6SM BKN180
Forecast period: 1300 to 1900 UTC 24 April 2014
Forecast type: FROM: standard forecast or significant change
Winds: from the ESE (120 degrees) at 8 MPH (7 knots; 3.6 m/s)
Visibility: 6 or more miles (10+ km)
Ceiling: 18000 feet AGL
Clouds: broken clouds at 18000 feet AGL
Weather: no significant weather forecast for this period
TAF Text: FM241900 11009KT P6SM BKN080
Forecast period: 1900 UTC 24 April 2014 to 0000 UTC 25 April 2014
Forecast type: FROM: standard forecast or significant change
Winds: from the ESE (110 degrees) at 10 MPH (9 knots; 4.7 m/s)
Visibility: 6 or more miles (10+ km)
Ceiling: 8000 feet AGL
Clouds: broken clouds at 8000 feet AGL
Weather: no significant weather forecast for this period

Find All Airport Services Find A Hotel Find A Rental Car Find A Golf Course Find A Restaurant $100 Hamburger



FBO's on the Field
FBO Company Facility Photos Services Transportation Aviation Fuel Prices: Prices include tax
Catering Weather Repair Courtesy Rental Type 100LL JetA JetA+ MOGAS 8087
 
Aviation Express Inc.

This FBO has not yet been rated
FS:Shell
Last Updated: Mar-31
Login to update fuel prices
SS:
Contact Aviation Express Inc.More FBO Information
 
Aviation North

This FBO has not yet been rated
FS:Avfuel
Last Updated: Apr-14
Login to update fuel prices
SS:
Contact Aviation NorthMore FBO Information
 
Add another FBO Facility Photos Catering Weather Repair Courtesy Rental Type 100LL JetA JetA+ MOGAS 8087
Services Transportation Aviation Fuel Prices: Prices include tax


GlobalAir.com Airport Resource Center model-print
model-print
model-print
model-print